Latest Weather Observations for Laverton

IDV60901

Issued at 10:55 am EST Wednesday 30 July 2014 (issued every 10 minutes, with the page automatically refreshed every 10 minutes)

About weather observations | Map of Melbourne area stations | Latest observations for Melbourne area | Other Formats
Station Details ID: 087031 Name: LAVERTON RAAF Lat: -37.86 Lon: 144.76 Height: 20.1 m
Data from the previous 72 hours. | See also: Recent months at Laverton
Date/Time
EST
Tmp

°C
App
Tmp
°C
Dew
Point
°C
Rel
Hum
%
Delta-T

°C
Wind Press
QNH
hPa
Press
MSL
hPa
Rain
since
9 am
mm
Dir
 
Spd
km/h
Gust
km/h
Spd
kts
Gust
kts
30/10:30am 15.8 12.1 10.1 69 3.0 NNW 20 30 11 16 1012.5 - 0.0
30/10:00am 15.3 10.7 9.7 69 2.9 NW 24 37 13 20 1013.0 - 0.0
30/09:30am 15.6 11.0 9.7 68 3.1 N 24 33 13 18 1012.4 - 0.0
30/09:00am 14.1 10.1 9.1 72 2.5 N 20 30 11 16 1012.3 1012.3 0.0
30/08:30am 13.3 9.0 9.2 76 2.1 N 22 30 12 16 1012.3 - 0.0
30/08:00am 12.3 8.5 9.0 80 1.7 N 19 30 10 16 1011.9 - 0.0
30/07:30am 11.8 8.5 8.1 78 1.8 N 15 20 8 11 1012.0 - 0.0
30/07:00am 12.0 8.2 7.7 75 2.1 NNW 17 22 9 12 1012.0 - 0.0
30/06:30am 11.6 7.9 8.1 79 1.7 NNW 17 22 9 12 1012.0 - 0.0
30/06:00am 11.3 8.0 8.0 80 1.6 NW 15 19 8 10 1012.0 1012.0 0.0
30/05:30am 12.1 9.0 8.9 81 1.6 NNW 15 19 8 10 1011.9 - 0.0
30/05:00am 11.8 9.2 9.4 85 1.2 NW 13 19 7 10 1011.6 - 0.0
30/04:30am 13.0 9.1 9.4 79 1.8 WSW 20 32 11 17 1011.5 - 0.0
30/04:00am 13.9 10.2 9.5 75 2.3 WNW 19 24 10 13 1011.3 - 0.0
30/03:30am 14.0 10.7 9.4 74 2.4 NW 17 24 9 13 1011.4 - 0.0
30/03:00am 14.0 10.7 9.6 75 2.3 NW 17 22 9 12 1011.2 1011.2 0.0
30/02:30am 13.7 11.2 9.6 76 2.1 NW 13 17 7 9 1011.3 - 0.0
30/02:00am 14.2 11.0 9.8 75 2.3 NW 17 24 9 13 1011.1 - 0.0
30/01:30am 14.0 10.8 9.8 76 2.2 NW 17 22 9 12 1011.1 - 0.0
30/01:00am 14.2 11.4 10.0 76 2.2 NW 15 19 8 10 1011.0 - 0.0
30/12:36am 13.9 12.4 10.5 80 1.8 WSW 9 13 5 7 1011.1 - 0.0
30/12:30am 14.1 11.8 10.5 79 1.9 W 13 24 7 13 1011.1 - 0.0
30/12:17am 14.6 8.9 9.8 73 2.5 NW 30 43 16 23 1011.1 - 0.0
30/12:00am 15.1 10.9 9.9 71 2.7 NW 22 30 12 16 1010.7 1010.7 0.0
 
Date/Time
EST
Tmp

°C
App
Tmp
°C
Dew
Point
°C
Rel
Hum
%
Delta-T

°C
Wind Press
QNH
hPa
Press
MSL
hPa
Rain
since
9 am
mm
Dir
 
Spd
km/h
Gust
km/h
Spd
kts
Gust
kts
29/11:30pm 15.0 10.4 9.8 71 2.7 NW 24 35 13 19 1010.5 - 0.0
29/11:00pm 15.1 10.5 9.7 70 2.8 NW 24 33 13 18 1010.3 - 0.0
29/10:30pm 15.6 9.5 9.7 68 3.1 NW 32 46 17 25 1010.0 - 0.0
29/10:00pm 15.9 9.8 9.6 66 3.3 NW 32 43 17 23 1009.8 - 0.0
29/09:30pm 15.8 10.1 9.9 68 3.1 NW 30 39 16 21 1009.5 - 0.0
29/09:00pm 15.6 10.7 9.9 69 3.0 NW 26 35 14 19 1009.7 1009.7 0.0
29/08:30pm 15.3 10.4 10.1 71 2.7 NW 26 35 14 19 1009.6 - 0.0
29/08:00pm 15.5 12.3 9.8 69 3.0 NNW 17 24 9 13 1009.7 - 0.0
29/07:30pm 15.5 11.4 10.1 70 2.8 NNW 22 32 12 17 1009.4 - 0.0
29/07:00pm 15.6 11.4 9.9 69 3.0 NNW 22 35 12 19 1009.2 - 0.0
29/06:30pm 15.9 10.2 9.8 67 3.2 NW 30 43 16 23 1008.8 - 0.0
29/06:00pm 16.2 11.2 9.6 65 3.4 NNW 26 43 14 23 1008.8 1008.8 0.0
29/05:30pm 16.3 9.6 9.5 64 3.5 NW 35 54 19 29 1008.1 - 0.0
29/05:08pm 16.4 10.1 9.6 64 3.5 NW 33 52 18 28 1007.9 - 0.0
29/05:00pm 16.5 10.1 9.4 63 3.7 NNW 33 46 18 25 1008.0 - 0.0
29/04:40pm 16.4 11.1 9.8 65 3.5 NW 28 46 15 25 1007.6 - 0.0
29/04:30pm 15.6 10.2 9.5 67 3.2 NNW 28 39 15 21 1007.6 - 0.0
29/04:00pm 16.1 10.6 9.3 64 3.5 NNW 28 41 15 22 1007.0 - 0.0
29/03:33pm 16.3 10.8 9.0 62 3.8 NNW 28 46 15 25 1007.2 - 0.0
29/03:30pm 16.2 11.0 8.9 62 3.7 NNW 26 43 14 23 1007.3 - 0.0
29/03:00pm 16.3 10.3 8.8 61 3.9 NNW 30 50 16 27 1007.4 1007.4 0.0
29/02:38pm 16.1 9.6 8.8 62 3.7 NNW 33 52 18 28 1007.3 - 0.0
29/02:30pm 16.4 10.1 8.9 61 3.9 NNW 32 48 17 26 1007.2 - 0.0
29/02:12pm 16.5 11.0 9.0 61 3.9 NNW 28 50 15 27 1007.1 - 0.0
29/02:00pm 16.2 10.7 9.2 63 3.6 NNW 28 44 15 24 1007.0 - 0.0
29/01:39pm 15.7 9.8 8.9 64 3.5 NNW 30 48 16 26 1007.1 - 0.0
29/01:30pm 15.6 9.7 9.1 65 3.3 N 30 43 16 23 1007.4 - 0.0
29/01:10pm 15.7 10.1 8.9 64 3.5 N 28 46 15 25 1007.2 - 0.0
29/01:00pm 15.5 9.6 9.0 65 3.3 N 30 43 16 23 1007.3 - 0.0
29/12:30pm 15.0 9.0 8.5 65 3.3 N 30 44 16 24 1008.1 - 0.0
29/12:00pm 15.4 9.8 8.6 64 3.5 N 28 43 15 23 1008.4 1008.4 0.0
29/11:30am 15.1 8.1 8.3 64 3.4 NNW 35 54 19 29 1008.5 - 0.0
29/11:04am 14.9 8.8 8.4 65 3.3 NNW 30 48 16 26 1009.2 - 0.0
29/11:00am 14.7 8.6 8.4 66 3.2 N 30 44 16 24 1009.2 - 0.0
29/10:30am 14.8 7.0 8.1 64 3.4 NNW 39 54 21 29 1009.0 - 0.0
29/10:11am 14.3 7.5 7.6 64 3.3 NNW 33 52 18 28 1008.6 - 0.0
29/10:00am 13.7 6.0 7.2 65 3.2 N 37 50 20 27 1008.4 - 0.0
29/09:30am 14.5 8.1 7.1 61 3.6 N 30 50 16 27 1009.0 - 0.0
29/09:13am 14.1 8.2 7.4 64 3.3 N 28 46 15 25 1009.2 - 0.0
29/09:00am 13.1 7.9 7.3 68 2.8 NNE 24 33 13 18 1009.7 1009.7 0.0
29/08:30am 12.4 8.5 7.3 71 2.5 NNE 17 26 9 14 1009.6 - 0.0
29/08:00am 12.1 6.9 7.2 72 2.4 N 24 35 13 19 1009.0 - 0.0
29/07:30am 11.4 6.5 6.7 73 2.2 N 22 32 12 17 1008.9 - 0.0
29/07:00am 11.7 7.4 7.0 73 2.2 N 19 26 10 14 1009.2 - 0.0
29/06:30am 11.6 7.7 6.9 73 2.2 N 17 24 9 13 1009.5 - 0.0
29/06:00am 11.7 7.2 7.0 73 2.3 N 20 30 11 16 1009.1 1009.1 0.0
29/05:30am 11.9 8.0 7.0 72 2.3 N 17 26 9 14 1009.1 - 0.0
29/05:00am 11.8 7.9 7.1 73 2.3 N 17 24 9 13 1009.4 - 0.0
29/04:30am 12.0 7.6 7.3 73 2.3 N 20 32 11 17 1009.1 - 0.0
29/04:00am 12.3 8.5 7.4 72 2.4 N 17 24 9 13 1009.5 - 0.0
29/03:30am 12.6 8.4 7.3 70 2.6 N 19 24 10 13 1009.5 - 0.0
29/03:00am 11.5 7.9 6.8 73 2.2 NNE 15 22 8 12 1009.6 1009.6 0.0
29/02:30am 12.6 8.4 7.3 70 2.6 N 19 24 10 13 1009.8 - 0.0
29/02:00am 12.6 7.7 7.1 69 2.7 N 22 32 12 17 1010.4 - 0.0
29/01:30am 12.3 8.0 7.0 70 2.5 N 19 30 10 16 1010.8 - 0.0
29/01:00am 12.2 8.4 7.7 74 2.2 N 17 26 9 14 1011.0 - 0.0
29/12:30am 10.7 7.3 7.6 81 1.5 N 15 22 8 12 1011.6 - 0.0
29/12:00am 10.2 6.3 6.9 80 1.6 NNE 17 20 9 11 1012.0 1012.0 0.0
 
Date/Time
EST
Tmp

°C
App
Tmp
°C
Dew
Point
°C
Rel
Hum
%
Delta-T

°C
Wind Press
QNH
hPa
Press
MSL
hPa
Rain
since
9 am
mm
Dir
 
Spd
km/h
Gust
km/h
Spd
kts
Gust
kts
28/11:30pm 10.5 6.6 7.0 79 1.7 NNE 17 22 9 12 1012.3 - 0.0
28/11:00pm 11.0 6.5 7.1 77 1.9 NNE 20 28 11 15 1012.2 - 0.0
28/10:30pm 11.3 6.5 7.2 76 2.0 N 22 32 12 17 1012.4 - 0.0
28/10:00pm 11.5 6.7 7.2 75 2.1 N 22 30 12 16 1012.3 - 0.0
28/09:30pm 11.9 7.1 7.4 74 2.2 N 22 32 12 17 1012.4 - 0.0
28/09:00pm 11.8 7.4 7.5 75 2.1 N 20 30 11 16 1012.4 1012.4 0.0
28/08:30pm 11.7 8.2 7.4 75 2.1 NNE 15 19 8 10 1012.6 - 0.0
28/08:00pm 11.9 8.5 7.8 76 2.0 NE 15 20 8 11 1012.7 - 0.0
28/07:30pm 11.7 8.5 6.8 72 2.3 NNE 13 20 7 11 1012.4 - 0.0
28/07:00pm 12.2 8.7 7.3 72 2.4 N 15 20 8 11 1012.1 - 0.0
28/06:30pm 13.1 9.9 6.9 66 3.0 N 13 19 7 10 1012.1 - 0.0
28/06:00pm 14.3 10.4 7.1 62 3.5 N 17 26 9 14 1012.1 1012.1 0.0
28/05:30pm 14.6 10.6 6.7 59 3.8 N 17 24 9 13 1012.1 - 0.0
28/05:00pm 15.4 11.8 6.9 57 4.2 NW 15 19 8 10 1012.5 - 0.0
28/04:30pm 16.7 11.3 6.5 51 5.0 WNW 24 33 13 18 1012.4 - 0.0
28/04:00pm 17.9 12.4 5.8 45 5.9 WNW 24 33 13 18 1012.3 - 0.0
28/03:30pm 17.1 12.0 7.5 53 4.8 N 24 37 13 20 1011.5 - 0.0
28/03:00pm 17.2 12.0 7.3 52 5.0 N 24 41 13 22 1011.6 1011.6 0.0
28/02:30pm 17.2 11.6 7.0 51 5.1 N 26 41 14 22 1011.8 - 0.0
28/02:00pm 17.4 11.8 7.2 51 5.1 N 26 39 14 21 1012.3 - 0.0
28/01:30pm 17.3 10.9 6.8 50 5.2 N 30 43 16 23 1012.6 - 0.0
28/01:00pm 17.3 11.2 6.8 50 5.2 N 28 43 15 23 1013.1 - 0.0
28/12:30pm 16.7 11.4 6.8 52 4.9 N 24 39 13 21 1013.8 - 0.0
28/12:00pm 16.2 10.5 6.9 54 4.6 N 26 37 14 20 1014.3 1014.3 0.0
28/11:30am 15.5 10.1 6.5 55 4.4 N 24 41 13 22 1014.6 - 0.0
28/11:00am 14.7 9.3 6.3 57 4.0 N 24 35 13 19 1014.9 - 0.0
28/10:30am 14.1 8.7 6.2 59 3.8 N 24 35 13 19 1015.4 - 0.0
28/10:00am 12.5 6.6 5.9 64 3.1 N 26 39 14 21 1015.3 - 0.0
28/09:30am 11.5 5.9 5.6 67 2.7 N 24 39 13 21 1015.7 - 0.0
28/09:00am 10.5 4.5 5.3 70 2.4 N 26 41 14 22 1015.8 1015.8 0.0
28/08:30am 9.6 4.0 5.2 74 2.0 NNW 24 35 13 19 1016.1 - 0.0
28/08:03am 8.9 2.4 4.9 76 1.8 N 28 46 15 25 1016.0 - 0.0
28/08:00am 9.0 2.2 5.0 76 1.8 N 30 46 16 25 1015.9 - 0.0
28/07:30am 9.1 2.6 4.7 74 2.0 N 28 43 15 23 1015.7 - 0.0
28/07:00am 10.2 4.5 4.8 69 2.4 N 24 33 13 18 1015.8 - 0.0
28/06:30am 10.2 5.2 4.8 69 2.4 N 20 30 11 16 1015.5 - 0.0
28/06:00am 10.4 5.4 4.8 68 2.5 N 20 32 11 17 1015.5 1015.5 0.0
28/05:30am 10.3 5.4 5.1 70 2.4 N 20 30 11 16 1015.8 - 0.0
28/05:00am 9.5 6.4 5.5 76 1.8 N 11 17 6 9 1016.1 - 0.0
28/04:30am 9.7 7.0 5.7 76 1.8 N 9 13 5 7 1016.2 - 0.0
28/04:00am 10.2 5.7 6.2 76 1.9 N 19 30 10 16 1015.9 - 0.0
28/03:30am 9.9 5.8 6.4 79 1.6 N 17 26 9 14 1016.3 - 0.0
28/03:00am 9.7 5.3 6.6 81 1.4 N 19 24 10 13 1016.8 1016.8 0.0
28/02:30am 10.1 5.6 6.8 80 1.6 N 20 30 11 16 1017.4 - 0.0
28/02:00am 10.2 5.3 6.9 80 1.6 N 22 30 12 16 1017.5 - 0.0
28/01:30am 10.2 5.4 7.3 82 1.4 N 22 33 12 18 1017.7 - 0.0
28/01:00am 10.0 5.6 7.4 84 1.2 N 20 28 11 15 1018.0 - 0.0
28/12:30am 10.0 5.8 7.6 85 1.1 N 19 28 10 15 1018.5 - 0.0
28/12:00am 10.2 6.5 7.8 85 1.2 N 17 24 9 13 1018.9 1018.9 0.0
 
Date/Time
EST
Tmp

°C
App
Tmp
°C
Dew
Point
°C
Rel
Hum
%
Delta-T

°C
Wind Press
QNH
hPa
Press
MSL
hPa
Rain
since
9 am
mm
Dir
 
Spd
km/h
Gust
km/h
Spd
kts
Gust
kts
27/11:30pm 10.4 5.7 7.8 84 1.3 N 22 32 12 17 1018.9 - 0.0
27/11:00pm 10.5 5.8 7.7 83 1.3 N 22 32 12 17 1019.5 - 0.0
27/10:30pm 10.5 6.2 7.2 80 1.6 N 19 24 10 13 1019.8 - 0.0
27/10:00pm 10.6 7.5 7.1 79 1.7 N 13 19 7 10 1020.3 - 0.0
27/09:30pm 10.7 7.2 7.4 80 1.6 N 15 20 8 11 1020.4 - 0.0
27/09:00pm 11.1 7.7 7.6 79 1.7 N 15 20 8 11 1020.4 1020.4 0.0
27/08:30pm 11.4 7.7 7.9 79 1.7 N 17 20 9 11 1020.3 - 0.0
27/08:00pm 11.2 7.4 7.7 79 1.7 N 17 22 9 12 1020.5 - 0.0
27/07:30pm 11.5 8.8 7.4 76 2.0 N 11 15 6 8 1020.9 - 0.0
27/07:00pm 12.2 9.5 7.3 72 2.4 N 11 22 6 12 1020.8 - 0.0
27/06:30pm 12.3 9.9 7.0 70 2.5 N 9 15 5 8 1020.4 - 0.0
27/06:00pm 13.2 9.7 7.0 66 3.0 N 15 22 8 12 1019.8 1019.8 0.0
27/05:30pm 13.9 9.9 6.7 62 3.5 N 17 22 9 12 1019.8 - 0.0
27/05:00pm 14.4 11.2 6.7 60 3.7 N 13 19 7 10 1020.2 - 0.0
27/04:30pm 14.5 10.9 6.8 60 3.7 N 15 20 8 11 1020.3 - 0.0
27/04:00pm 14.6 10.3 6.9 60 3.8 WNW 19 22 10 12 1020.8 - 0.0
27/03:30pm 15.4 11.7 6.4 55 4.4 W 15 20 8 11 1020.7 - 0.0
27/03:00pm 15.4 12.4 5.9 53 4.5 WNW 11 17 6 9 1020.5 1020.5 0.0
27/02:30pm 15.8 12.6 6.8 55 4.4 NNW 13 17 7 9 1020.1 - 0.0
27/02:00pm 16.1 11.8 6.8 54 4.6 NW 19 26 10 14 1020.4 - 0.0
27/01:30pm 16.1 11.9 7.3 56 4.4 N 19 26 10 14 1020.6 - 0.0
27/01:00pm 15.9 10.6 6.9 55 4.4 NNW 24 33 13 18 1021.3 - 0.0
27/12:30pm 15.3 10.9 7.6 60 3.8 N 20 28 11 15 1021.6 - 0.0
27/12:00pm 15.0 9.9 7.8 62 3.6 NNW 24 37 13 20 1022.4 1022.4 0.0
27/11:30am 15.2 10.6 8.0 62 3.6 N 22 30 12 16 1022.9 - 0.0
27/11:00am 14.1 9.3 7.4 64 3.3 N 22 30 12 16 1023.4 - 0.0

Latest Capital City Observations: Canberra | Sydney | Melbourne | Brisbane | Adelaide | Perth | Hobart | Darwin

Other Formats:

Comma delimited format used in spreadsheet applications
http://www.bom.gov.au/fwo/IDV60901/IDV60901.94865.axf

JavaScript Object Notation format (JSON) in row-major order
http://www.bom.gov.au/fwo/IDV60901/IDV60901.94865.json